Time;durP1;ratioP1;P1;durP2;ratioP2;P2;SDS_P1;SDS_P2;PMS_P1;PMS_P2;Temp;Humidity;BMP_temperature;BMP_pressure;BME280_temperature;BME280_humidity;BME280_pressure;Samples;Min_cycle;Max_cycle;Signal;HPM_P1;HPM_P2
2023/10/14 00:01:06;;;;;;;;;;;;;;;18.19;76.24;99747.14;105618;1260;125496;-77
2023/10/14 00:03:33;;;;;;;;;;;;;;;18.21;76.17;99751.73;105795;1259;75528;-77
2023/10/14 00:06:06;;;;;;;;;;;;;;;18.22;76.00;99748.51;105631;1260;125290;-76
2023/10/14 00:08:33;;;;;;;;;;;;;;;18.25;75.94;99742.94;105647;1262;72702;-77
2023/10/14 00:11:01;;;;;;;;;;;;;;;18.28;75.80;99738.41;105800;1261;62068;-77
2023/10/14 00:13:32;;;;;;;;;;;;;;;18.30;75.71;99730.92;106406;1261;124955;-77
2023/10/14 00:16:01;;;;;;;;;;;;;;;18.32;75.57;99729.28;105757;1263;75518;-77
2023/10/14 00:18:28;;;;;;;;;;;;;;;18.33;75.40;99724.65;106857;1260;125257;-77
2023/10/14 00:20:54;;;;;;;;;;;;;;;18.34;75.35;99723.02;105752;1260;71236;-77
2023/10/14 00:23:23;;;;;;;;;;;;;;;18.35;75.19;99722.10;105780;1263;62081;-77
2023/10/14 00:25:51;;;;;;;;;;;;;;;18.36;75.10;99725.83;105525;1264;125358;-77
2023/10/14 00:28:19;;;;;;;;;;;;;;;18.37;74.99;99724.55;105632;1263;75487;-76
2023/10/14 00:30:46;;;;;;;;;;;;;;;18.38;74.90;99715.30;105733;1260;125175;-76
2023/10/14 00:33:13;;;;;;;;;;;;;;;18.38;74.79;99711.02;105792;1261;72794;-77
2023/10/14 00:35:41;;;;;;;;;;;;;;;18.38;74.78;99707.29;105739;1261;62061;-77
2023/10/14 00:38:11;;;;;;;;;;;;;;;18.40;74.63;99709.19;105623;1261;125194;-77
2023/10/14 00:40:38;;;;;;;;;;;;;;;18.41;74.60;99702.43;105682;1258;75189;-76
2023/10/14 00:43:05;;;;;;;;;;;;;;;18.41;74.49;99696.91;105706;1260;125275;-75
2023/10/14 00:45:32;;;;;;;;;;;;;;;18.42;74.39;99691.03;105778;1263;72659;-75
2023/10/14 00:48:02;;;;;;;;;;;;;;;18.42;74.33;99691.91;105817;1263;125096;-76
2023/10/14 00:50:34;;;;;;;;;;;;;;;18.42;74.31;99680.74;105747;1262;60028;-76
2023/10/14 00:53:05;;;;;;;;;;;;;;;18.43;74.13;99684.61;105700;1261;73380;-76
2023/10/14 00:58:20;;;;;;;;;;;;;;;18.43;74.05;99676.97;105713;1264;71414;-79
2023/10/14 01:01:00;;;;;;;;;;;;;;;18.42;73.97;99672.90;105614;1260;124983;-79
2023/10/14 01:03:31;;;;;;;;;;;;;;;18.43;73.89;99669.16;105755;1262;61977;-79
2023/10/14 01:05:58;;;;;;;;;;;;;;;18.42;73.99;99662.42;105676;1263;125828;-78
2023/10/14 01:08:25;;;;;;;;;;;;;;;18.40;73.78;99661.94;105666;1262;65276;-78
2023/10/14 01:10:52;;;;;;;;;;;;;;;18.38;73.85;99658.09;105685;1267;72725;-79
2023/10/14 01:13:22;;;;;;;;;;;;;;;18.35;73.86;99654.98;105576;1263;125605;-77
2023/10/14 01:15:57;;;;;;;;;;;;;;;18.32;73.90;99652.73;105773;1260;62120;-80
2023/10/14 01:18:24;;;;;;;;;;;;;;;18.27;73.92;99653.55;105685;1262;125357;-79
2023/10/14 01:20:50;;;;;;;;;;;;;;;18.24;73.87;99648.67;105677;1273;66228;-79
2023/10/14 01:23:17;;;;;;;;;;;;;;;18.21;73.94;99640.20;105726;1261;72819;-79
2023/10/14 01:25:52;;;;;;;;;;;;;;;18.17;73.98;99634.27;105591;1261;125124;-78
2023/10/14 01:28:23;;;;;;;;;;;;;;;18.15;73.97;99631.13;105726;1262;62159;-78
2023/10/14 01:31:10;;;;;;;;;;;;;;;18.13;74.02;99627.26;105666;1261;125308;-78
2023/10/14 01:33:37;;;;;;;;;;;;;;;18.10;74.02;99619.53;105692;1261;66790;-78
2023/10/14 01:36:05;;;;;;;;;;;;;;;18.09;74.00;99616.20;106717;1259;124665;-78
2023/10/14 01:38:31;;;;;;;;;;;;;;;18.06;74.02;99609.67;105655;1260;62195;-78
2023/10/14 01:40:58;;;;;;;;;;;;;;;18.04;73.93;99600.51;105860;1263;61980;-79
2023/10/14 01:43:24;;;;;;;;;;;;;;;18.00;74.07;99590.99;105607;1263;124377;-79
2023/10/14 01:48:25;;;;;;;;;;;;;;;17.94;74.06;99577.13;105702;1258;124539;-77
2023/10/14 01:50:54;;;;;;;;;;;;;;;17.89;74.08;99577.77;105857;1263;61981;-78
2023/10/14 01:53:23;;;;;;;;;;;;;;;17.84;74.14;99570.08;107795;1260;59915;-79
2023/10/14 01:55:57;;;;;;;;;;;;;;;17.78;74.14;99570.02;105549;1259;124809;-78
2023/10/14 01:58:30;;;;;;;;;;;;;;;17.73;74.28;99564.11;105757;1263;64970;-79
2023/10/14 02:03:35;;;;;;;;;;;;;;;17.62;74.40;99551.40;105842;1263;60583;-79
2023/10/14 02:06:16;;;;;;;;;;;;;;;17.57;74.48;99549.92;107998;1261;124981;-78
2023/10/14 02:08:44;;;;;;;;;;;;;;;17.51;74.56;99549.52;105906;1262;73402;-79
2023/10/14 02:11:10;;;;;;;;;;;;;;;17.45;74.56;99542.56;105776;1260;65039;-79
2023/10/14 02:13:37;;;;;;;;;;;;;;;17.37;74.62;99546.81;105661;1260;125090;-79
2023/10/14 02:16:07;;;;;;;;;;;;;;;17.28;74.67;99542.76;105743;1263;62034;-79
2023/10/14 02:18:37;;;;;;;;;;;;;;;17.20;74.88;99537.43;105663;1263;125519;-80
2023/10/14 02:21:27;;;;;;;;;;;;;;;17.15;75.00;99532.41;105776;1261;74402;-79
2023/10/14 02:23:53;;;;;;;;;;;;;;;17.12;75.24;99523.96;105670;1261;65643;-80
2023/10/14 02:26:33;;;;;;;;;;;;;;;17.10;75.37;99519.92;105903;1260;72426;-80
2023/10/14 02:29:00;;;;;;;;;;;;;;;17.09;75.45;99520.83;105625;1261;63970;-80
2023/10/14 02:31:29;;;;;;;;;;;;;;;17.08;75.59;99516.23;105686;1258;125142;-80
2023/10/14 02:33:56;;;;;;;;;;;;;;;17.08;75.68;99513.42;105690;1264;76229;-79
2023/10/14 02:36:29;;;;;;;;;;;;;;;17.07;75.76;99510.60;105548;1260;125686;-80
2023/10/14 02:38:56;;;;;;;;;;;;;;;17.07;75.84;99506.70;108878;1260;71470;-80
2023/10/14 02:41:27;;;;;;;;;;;;;;;17.08;75.90;99497.48;106317;1262;62089;-79
2023/10/14 02:44:13;;;;;;;;;;;;;;;17.09;75.98;99499.21;105781;1261;129048;-79
2023/10/14 02:46:46;;;;;;;;;;;;;;;17.09;76.02;99491.93;105792;1260;75541;-79
2023/10/14 02:49:14;;;;;;;;;;;;;;;17.10;75.99;99492.81;105612;1260;125079;-79
2023/10/14 02:51:42;;;;;;;;;;;;;;;17.11;76.04;99491.55;105832;1261;71680;-80
2023/10/14 02:54:15;;;;;;;;;;;;;;;17.12;75.96;99490.46;105669;1262;125310;-78
2023/10/14 02:59:22;;;;;;;;;;;;;;;17.12;76.00;99492.05;105898;1260;75498;-77
2023/10/14 03:02:09;;;;;;;;;;;;;;;17.12;76.02;99495.25;105679;1264;124075;-79
2023/10/14 03:04:42;;;;;;;;;;;;;;;17.12;75.91;99492.41;105683;1263;72660;-79
2023/10/14 03:07:09;;;;;;;;;;;;;;;17.10;75.91;99491.91;105647;1261;125919;-77
2023/10/14 03:09:35;;;;;;;;;;;;;;;17.09;75.86;99486.77;105757;1261;62115;-76
2023/10/14 03:12:02;;;;;;;;;;;;;;;17.09;75.84;99482.88;105574;1261;125823;-76
2023/10/14 03:14:29;;;;;;;;;;;;;;;17.09;75.87;99485.91;105763;1263;66087;-76
2023/10/14 03:16:55;;;;;;;;;;;;;;;17.09;75.80;99485.73;105621;1263;71407;-76
2023/10/14 03:19:25;;;;;;;;;;;;;;;17.10;75.78;99484.98;105573;1261;125425;-76
2023/10/14 03:22:01;;;;;;;;;;;;;;;17.10;75.74;99486.60;105815;1267;60096;-76
2023/10/14 03:24:31;;;;;;;;;;;;;;;17.09;75.59;99479.35;105574;1261;125305;-77
2023/10/14 03:27:04;;;;;;;;;;;;;;;17.06;75.46;99473.93;105773;1259;64276;-77
2023/10/14 03:29:31;;;;;;;;;;;;;;;17.03;75.52;99470.08;106381;1261;71496;-77
2023/10/14 03:31:57;;;;;;;;;;;;;;;17.02;75.51;99465.85;105617;1262;124916;-76
2023/10/14 03:34:30;;;;;;;;;;;;;;;17.02;75.58;99454.52;105683;1263;62182;-76
2023/10/14 03:37:00;;;;;;;;;;;;;;;17.04;75.50;99448.27;105697;1260;125393;-77
2023/10/14 03:39:46;;;;;;;;;;;;;;;17.05;75.50;99441.35;105696;1260;66192;-77
2023/10/14 03:42:16;;;;;;;;;;;;;;;17.05;75.49;99431.95;105545;1264;125337;-77
2023/10/14 03:44:43;;;;;;;;;;;;;;;17.05;75.48;99423.95;105729;1263;61997;-77
2023/10/14 03:47:16;;;;;;;;;;;;;;;17.06;75.43;99424.83;105639;1264;62054;-77
2023/10/14 03:49:43;;;;;;;;;;;;;;;17.08;75.39;99421.60;105551;1260;125828;-77
2023/10/14 03:52:12;;;;;;;;;;;;;;;17.09;75.37;99410.22;105679;1261;65118;-77
2023/10/14 03:54:42;;;;;;;;;;;;;;;17.10;75.36;99406.48;105592;1261;125290;-76
2023/10/14 03:57:16;;;;;;;;;;;;;;;17.11;75.28;99403.45;105724;1261;62159;-77
2023/10/14 03:59:46;;;;;;;;;;;;;;;17.11;75.34;99396.53;105594;1261;60981;-77
2023/10/14 04:02:19;;;;;;;;;;;;;;;17.11;75.26;99394.59;105628;1259;124965;-76
2023/10/14 04:04:46;;;;;;;;;;;;;;;17.11;75.28;99392.64;105837;1264;66296;-76
2023/10/14 04:07:14;;;;;;;;;;;;;;;17.12;75.35;99385.35;105552;1261;124927;-77
2023/10/14 04:09:50;;;;;;;;;;;;;;;17.12;75.37;99382.34;105637;1263;62162;-77
2023/10/14 04:12:31;;;;;;;;;;;;;;;17.12;75.37;99370.81;105466;1260;126080;-77
2023/10/14 04:15:05;;;;;;;;;;;;;;;17.11;75.40;99372.77;105774;1260;75508;-77
2023/10/14 04:17:32;;;;;;;;;;;;;;;17.09;75.50;99369.46;105682;1261;64990;-76
2023/10/14 04:22:40;;;;;;;;;;;;;;;17.07;75.74;99352.86;105793;1260;62166;-76
2023/10/14 04:25:21;;;;;;;;;;;;;;;17.03;75.87;99353.46;105693;1261;125124;-76
2023/10/14 04:28:24;;;;;;;;;;;;;;;17.00;75.98;99340.64;105777;1260;75608;-76
2023/10/14 04:30:44;;;;;;;;;;;;;;;16.95;76.17;99338.61;105629;1264;125567;-76
2023/10/14 04:33:19;;;;;;;;;;;;;;;16.89;76.28;99330.77;105659;1263;72700;-76
2023/10/14 04:38:38;;;;;;;;;;;;;;;16.80;76.79;99322.63;105679;1262;62105;-75
2023/10/14 04:41:12;;;;;;;;;;;;;;;16.76;76.87;99313.16;105785;1258;74046;-75
2023/10/14 04:46:16;;;;;;;;;;;;;;;16.64;77.23;99318.39;105768;1263;73689;-75
2023/10/14 04:48:59;;;;;;;;;;;;;;;16.59;77.41;99309.12;105725;1261;125792;-75
2023/10/14 04:51:36;;;;;;;;;;;;;;;16.54;77.62;99304.09;105750;1260;62043;-75
2023/10/14 04:54:09;;;;;;;;;;;;;;;16.50;77.85;99297.28;105602;1263;125719;-77
2023/10/14 04:56:35;;;;;;;;;;;;;;;16.47;78.00;99295.21;108913;1260;64314;-76
2023/10/14 04:59:05;;;;;;;;;;;;;;;16.44;78.20;99287.83;105948;1257;71466;-76
2023/10/14 05:01:32;;;;;;;;;;;;;;;16.43;78.29;99284.16;105970;1260;124992;-77
2023/10/14 05:03:59;;;;;;;;;;;;;;;16.39;78.48;99280.34;105839;1259;62073;-77
2023/10/14 05:06:40;;;;;;;;;;;;;;;16.35;78.52;99274.42;105712;1260;125834;-76
2023/10/14 05:09:22;;;;;;;;;;;;;;;16.30;78.64;99277.35;105910;1260;66296;-75
2023/10/14 05:11:49;;;;;;;;;;;;;;;16.28;78.88;99277.58;105880;1262;72392;-77
2023/10/14 05:14:15;;;;;;;;;;;;;;;16.26;78.96;99280.45;105774;1260;124814;-76
2023/10/14 05:17:32;;;;;;;;;;;;;;;16.25;79.15;99285.08;105714;1260;62101;-78
2023/10/14 05:19:54;;;;;;;;;;;;;;;16.22;79.23;99284.95;105817;1258;125238;-78
2023/10/14 05:22:19;;;;;;;;;;;;;;;16.22;79.36;99277.71;105827;1259;65582;-78
2023/10/14 05:24:48;;;;;;;;;;;;;;;16.21;79.59;99270.84;105722;1262;124929;-78
2023/10/14 05:27:17;;;;;;;;;;;;;;;16.18;79.69;99269.13;105704;1257;60855;-79
2023/10/14 05:29:50;;;;;;;;;;;;;;;16.17;79.84;99277.81;105716;1260;62159;-80
2023/10/14 05:32:30;;;;;;;;;;;;;;;16.17;80.01;99271.27;105767;1260;124675;-78
2023/10/14 05:34:59;;;;;;;;;;;;;;;16.16;80.04;99265.98;105704;1260;66319;-78
2023/10/14 05:37:26;;;;;;;;;;;;;;;16.15;80.13;99267.23;105567;1260;124105;-78
2023/10/14 05:39:55;;;;;;;;;;;;;;;16.14;80.15;99264.97;105754;1259;62034;-76
2023/10/14 05:42:22;;;;;;;;;;;;;;;16.15;80.19;99266.19;105648;1260;126005;-77
2023/10/14 05:44:49;;;;;;;;;;;;;;;16.16;80.31;99270.41;105654;1264;75437;-77
2023/10/14 05:47:16;;;;;;;;;;;;;;;16.16;80.34;99273.23;105998;1258;63838;-76
2023/10/14 05:49:43;;;;;;;;;;;;;;;16.17;80.38;99261.35;105677;1260;125062;-77
2023/10/14 05:52:11;;;;;;;;;;;;;;;16.19;80.44;99260.95;105734;1260;62021;-85
2023/10/14 05:54:38;;;;;;;;;;;;;;;16.20;80.36;99268.02;106629;1259;125418;-78
2023/10/14 05:57:05;;;;;;;;;;;;;;;16.19;80.37;99265.02;106750;1260;74076;-77
2023/10/14 05:59:32;;;;;;;;;;;;;;;16.20;80.34;99259.89;106606;1261;66004;-77
2023/10/14 06:01:59;;;;;;;;;;;;;;;16.22;80.33;99251.89;106409;1260;125772;-77
2023/10/14 06:04:25;;;;;;;;;;;;;;;16.23;80.30;99249.52;105757;1257;62130;-77
2023/10/14 06:06:53;;;;;;;;;;;;;;;16.25;80.29;99249.50;105666;1260;124948;-77
2023/10/14 06:09:21;;;;;;;;;;;;;;;16.26;80.24;99245.75;105618;1261;74240;-77
2023/10/14 06:11:48;;;;;;;;;;;;;;;16.28;80.34;99241.47;105833;1262;66767;-79
2023/10/14 06:14:14;;;;;;;;;;;;;;;16.31;80.17;99240.50;105685;1261;124888;-77
2023/10/14 06:16:41;;;;;;;;;;;;;;;16.35;80.14;99239.02;105891;1261;62110;-77
2023/10/14 06:19:10;;;;;;;;;;;;;;;16.39;80.02;99242.99;105736;1261;125089;-79
2023/10/14 06:21:37;;;;;;;;;;;;;;;16.45;80.11;99237.89;106086;1259;75820;-79
2023/10/14 06:24:04;;;;;;;;;;;;;;;16.52;79.93;99242.33;106814;1260;126049;-79
2023/10/14 06:26:34;;;;;;;;;;;;;;;16.60;79.83;99241.79;106261;1262;71521;-79
2023/10/14 06:29:01;;;;;;;;;;;;;;;16.68;79.69;99238.23;106467;1257;60100;-77
2023/10/14 06:31:28;;;;;;;;;;;;;;;16.77;79.56;99232.89;106596;1260;125053;-78
2023/10/14 06:33:54;;;;;;;;;;;;;;;16.85;79.40;99230.59;106211;1259;75403;-79
2023/10/14 06:36:23;;;;;;;;;;;;;;;16.94;79.29;99233.02;106765;1259;125270;-80
2023/10/14 06:38:51;;;;;;;;;;;;;;;17.02;79.04;99239.02;106754;1262;71514;-79
2023/10/14 06:41:18;;;;;;;;;;;;;;;17.08;78.87;99241.34;106635;1260;62096;-79
2023/10/14 06:43:55;;;;;;;;;;;;;;;17.14;78.70;99239.77;105739;1259;124968;-79
2023/10/14 06:46:22;;;;;;;;;;;;;;;17.21;78.42;99242.79;106474;1259;75424;-78
2023/10/14 06:48:52;;;;;;;;;;;;;;;17.27;78.33;99243.33;106251;1260;125562;-79
2023/10/14 06:51:19;;;;;;;;;;;;;;;17.34;78.10;99237.48;106400;1258;71399;-77
2023/10/14 06:53:46;;;;;;;;;;;;;;;17.39;77.90;99233.98;105852;1262;62047;-80
2023/10/14 06:56:15;;;;;;;;;;;;;;;17.42;77.68;99242.94;106375;1257;125265;-79
2023/10/14 06:58:44;;;;;;;;;;;;;;;17.44;77.44;99238.27;106508;1259;74522;-79
2023/10/14 07:01:11;;;;;;;;;;;;;;;17.45;77.31;99236.29;105805;1263;125013;-79
2023/10/14 07:03:38;;;;;;;;;;;;;;;17.45;77.15;99233.81;105760;1260;62223;-80
2023/10/14 07:06:05;;;;;;;;;;;;;;;17.45;76.96;99229.55;106438;1260;125747;-83
2023/10/14 07:08:32;;;;;;;;;;;;;;;17.44;76.88;99226.02;106456;1260;62060;-81
2023/10/14 07:11:00;;;;;;;;;;;;;;;17.47;76.85;99218.70;106478;1260;76082;-84
2023/10/14 07:13:27;;;;;;;;;;;;;;;17.51;76.68;99216.80;106562;1260;125011;-81
2023/10/14 07:15:54;;;;;;;;;;;;;;;17.60;76.69;99214.41;106332;1263;72388;-81
2023/10/14 07:18:23;;;;;;;;;;;;;;;17.74;76.61;99219.53;106406;1259;125725;-82
2023/10/14 07:21:00;;;;;;;;;;;;;;;17.87;76.33;99225.36;106455;1258;62067;-83
2023/10/14 07:23:26;;;;;;;;;;;;;;;17.98;76.09;99226.14;106366;1259;73575;-81
2023/10/14 07:25:53;;;;;;;;;;;;;;;17.99;75.66;99223.77;106559;1259;124972;-81
2023/10/14 07:28:20;;;;;;;;;;;;;;;18.00;75.44;99219.15;106520;1258;62500;-81
2023/10/14 07:30:50;;;;;;;;;;;;;;;18.01;75.29;99222.31;106173;1263;125877;-81
2023/10/14 07:33:17;;;;;;;;;;;;;;;18.08;75.22;99225.12;106440;1260;60416;-81
2023/10/14 07:35:44;;;;;;;;;;;;;;;18.24;75.39;99227.29;106318;1258;75139;-78
2023/10/14 07:38:11;;;;;;;;;;;;;;;18.53;75.39;99231.71;106136;1259;125015;-81
2023/10/14 07:40:38;;;;;;;;;;;;;;;18.83;75.26;99235.94;106126;1259;72398;-80
2023/10/14 07:43:07;;;;;;;;;;;;;;;19.03;74.86;99241.31;106115;1260;125038;-81
2023/10/14 07:45:35;;;;;;;;;;;;;;;19.19;74.44;99253.58;106184;1260;61926;-82
2023/10/14 07:48:08;;;;;;;;;;;;;;;19.32;74.11;99266.45;106075;1259;124720;-84
2023/10/14 07:50:38;;;;;;;;;;;;;;;19.49;73.96;99279.39;106262;1259;66269;-82
2023/10/14 07:53:08;;;;;;;;;;;;;;;19.68;73.55;99294.73;106326;1263;71472;-83
2023/10/14 07:55:38;;;;;;;;;;;;;;;19.71;73.38;99311.38;106356;1261;124555;-82
2023/10/14 07:58:08;;;;;;;;;;;;;;;19.65;73.38;99328.31;106446;1264;61981;-83
2023/10/14 08:00:37;;;;;;;;;;;;;;;19.43;73.41;99336.70;106256;1259;125054;-83
2023/10/14 08:03:06;;;;;;;;;;;;;;;19.27;73.74;99350.95;106601;1263;66695;-80
2023/10/14 08:05:39;;;;;;;;;;;;;;;19.10;74.05;99379.23;106267;1260;72875;-80
2023/10/14 08:08:09;;;;;;;;;;;;;;;18.89;73.74;99401.75;106081;1260;125782;-80
2023/10/14 08:10:36;;;;;;;;;;;;;;;18.60;73.34;99424.61;106188;1259;60464;-80
2023/10/14 08:13:07;;;;;;;;;;;;;;;18.37;73.54;99434.50;106240;1261;125085;-81
2023/10/14 08:15:35;;;;;;;;;;;;;;;18.22;73.69;99432.61;106376;1260;66317;-83
2023/10/14 08:18:04;;;;;;;;;;;;;;;18.13;73.91;99441.58;106285;1263;126144;-82
2023/10/14 08:20:31;;;;;;;;;;;;;;;18.06;74.10;99457.19;106236;1259;62516;-86
2023/10/14 08:22:58;;;;;;;;;;;;;;;17.94;74.01;99468.84;106225;1265;62244;-81
2023/10/14 08:25:28;;;;;;;;;;;;;;;17.86;73.83;99473.48;106191;1260;125034;-81
2023/10/14 08:27:55;;;;;;;;;;;;;;;17.80;73.46;99472.02;106403;1259;66291;-81
2023/10/14 08:30:24;;;;;;;;;;;;;;;17.77;73.07;99481.67;106188;1263;124506;-81
2023/10/14 08:32:52;;;;;;;;;;;;;;;17.69;72.40;99482.21;106427;1259;61899;-81
2023/10/14 08:35:19;;;;;;;;;;;;;;;17.64;71.98;99485.36;106408;1262;62163;-81
2023/10/14 08:37:47;;;;;;;;;;;;;;;17.57;71.82;99495.46;106216;1259;124416;-81
2023/10/14 08:40:25;;;;;;;;;;;;;;;17.52;71.75;99503.74;106465;1259;64478;-81
2023/10/14 08:42:56;;;;;;;;;;;;;;;17.47;71.77;99520.00;106410;1259;124325;-81
2023/10/14 08:45:25;;;;;;;;;;;;;;;17.44;71.70;99520.60;106485;1259;62153;-82
2023/10/14 08:47:52;;;;;;;;;;;;;;;17.36;71.24;99528.23;106372;1258;62067;-82
2023/10/14 08:50:19;;;;;;;;;;;;;;;17.28;71.19;99522.38;106201;1263;125727;-81
2023/10/14 08:52:45;;;;;;;;;;;;;;;17.25;71.29;99531.31;106472;1259;65558;-81
2023/10/14 08:55:15;;;;;;;;;;;;;;;17.24;71.16;99547.98;106386;1259;125096;-85
2023/10/14 08:57:44;;;;;;;;;;;;;;;17.20;71.02;99564.91;106379;1262;62524;-80
2023/10/14 09:00:12;;;;;;;;;;;;;;;17.22;71.08;99557.26;106485;1262;124798;-80
2023/10/14 09:02:39;;;;;;;;;;;;;;;17.29;71.18;99565.97;106402;1259;74190;-80
2023/10/14 09:05:11;;;;;;;;;;;;;;;17.43;71.29;99586.58;106380;1258;66091;-80
2023/10/14 09:07:38;;;;;;;;;;;;;;;17.62;71.24;99592.20;106178;1260;124863;-81
2023/10/14 09:10:06;;;;;;;;;;;;;;;17.86;71.06;99593.98;107525;1259;62079;-81
2023/10/14 09:12:32;;;;;;;;;;;;;;;18.06;71.08;99598.32;106337;1263;124742;-79
2023/10/14 09:14:59;;;;;;;;;;;;;;;18.23;70.87;99612.98;106319;1262;74177;-82
2023/10/14 09:17:28;;;;;;;;;;;;;;;18.34;70.53;99617.36;106395;1259;66284;-82
2023/10/14 09:19:54;;;;;;;;;;;;;;;18.25;69.62;99617.91;106272;1258;222757;-82
2023/10/14 09:22:24;;;;;;;;;;;;;;;18.10;69.48;99639.42;106723;1258;60232;-82
2023/10/14 09:24:52;;;;;;;;;;;;;;;17.91;69.25;99648.70;106680;1259;124233;-81
2023/10/14 09:27:19;;;;;;;;;;;;;;;17.67;68.73;99651.35;106766;1262;75670;-82
2023/10/14 09:29:46;;;;;;;;;;;;;;;17.46;69.06;99657.11;106564;1262;65947;-82
2023/10/14 09:32:13;;;;;;;;;;;;;;;17.34;69.28;99667.13;106164;1259;124771;-81
2023/10/14 09:34:43;;;;;;;;;;;;;;;17.20;68.95;99652.86;106453;1260;61208;-84
2023/10/14 09:37:13;;;;;;;;;;;;;;;17.22;69.55;99654.58;106150;1258;125409;-83
2023/10/14 09:39:41;;;;;;;;;;;;;;;17.33;69.49;99671.20;106443;1259;75632;-83
2023/10/14 09:42:10;;;;;;;;;;;;;;;17.29;69.32;99678.91;106274;1260;125155;-82
2023/10/14 09:44:37;;;;;;;;;;;;;;;17.20;69.21;99682.45;106469;1259;73444;-83
2023/10/14 09:47:04;;;;;;;;;;;;;;;17.07;69.07;99693.34;106486;1260;62208;-83
2023/10/14 09:49:30;;;;;;;;;;;;;;;16.90;68.88;99690.80;106261;1259;124246;-83
2023/10/14 09:51:57;;;;;;;;;;;;;;;16.80;68.96;99689.17;106331;1259;74155;-83
2023/10/14 09:54:23;;;;;;;;;;;;;;;16.76;69.26;99692.98;106175;1260;124823;-82
2023/10/14 09:56:50;;;;;;;;;;;;;;;16.80;69.57;99686.88;106385;1259;72631;-82
2023/10/14 09:59:17;;;;;;;;;;;;;;;16.95;69.57;99682.57;106402;1260;61997;-83
2023/10/14 10:01:43;;;;;;;;;;;;;;;17.06;69.40;99681.12;106212;1259;124183;-83
2023/10/14 10:04:14;;;;;;;;;;;;;;;17.16;69.32;99691.92;106482;1259;75572;-83
2023/10/14 10:06:47;;;;;;;;;;;;;;;17.24;69.04;99692.48;106264;1259;124572;-83
2023/10/14 10:09:34;;;;;;;;;;;;;;;17.38;69.09;99699.66;106454;1259;72783;-84
2023/10/14 10:12:04;;;;;;;;;;;;;;;17.49;68.65;99700.33;106317;1259;124385;-82
2023/10/14 10:14:33;;;;;;;;;;;;;;;17.48;68.48;99694.30;106502;1259;62754;-83
2023/10/14 10:17:03;;;;;;;;;;;;;;;17.54;68.17;99703.06;106305;1264;74176;-83
2023/10/14 10:19:49;;;;;;;;;;;;;;;17.55;67.87;99702.34;106446;1259;124404;-82
2023/10/14 10:22:17;;;;;;;;;;;;;;;17.55;67.68;99713.33;106340;1260;71536;-82
2023/10/14 10:24:46;;;;;;;;;;;;;;;17.60;67.69;99714.65;106244;1259;125308;-82
2023/10/14 10:27:14;;;;;;;;;;;;;;;17.60;66.88;99717.30;106400;1259;62101;-82
2023/10/14 10:29:42;;;;;;;;;;;;;;;17.61;67.09;99733.96;106329;1259;73923;-83
2023/10/14 10:32:09;;;;;;;;;;;;;;;17.60;66.21;99734.52;106303;1259;125297;-83
2023/10/14 10:34:54;;;;;;;;;;;;;;;17.59;66.27;99738.09;106424;1259;70410;-81
2023/10/14 10:37:25;;;;;;;;;;;;;;;17.64;65.90;99755.73;106375;1263;124628;-82
2023/10/14 10:39:52;;;;;;;;;;;;;;;17.59;65.30;99754.77;106361;1264;62032;-82
2023/10/14 10:42:19;;;;;;;;;;;;;;;17.45;64.93;99757.52;106275;1260;124405;-81
2023/10/14 10:44:46;;;;;;;;;;;;;;;17.35;64.86;99767.64;106275;1259;64028;-82
2023/10/14 10:47:12;;;;;;;;;;;;;;;17.26;64.51;99773.45;106360;1259;70552;-82
2023/10/14 10:49:48;;;;;;;;;;;;;;;17.10;64.48;99780.13;106324;1263;124285;-81
2023/10/14 10:52:15;;;;;;;;;;;;;;;16.97;64.63;99780.35;106498;1259;62037;-81
2023/10/14 10:54:45;;;;;;;;;;;;;;;16.80;64.40;99782.74;106266;1260;124545;-81
2023/10/14 10:57:11;;;;;;;;;;;;;;;16.66;64.06;99784.54;106359;1259;64852;-82
2023/10/14 10:59:38;;;;;;;;;;;;;;;16.52;64.38;99790.95;106313;1262;72692;-82
2023/10/14 11:02:06;;;;;;;;;;;;;;;16.46;64.35;99796.16;106191;1264;125198;-82
2023/10/14 11:04:33;;;;;;;;;;;;;;;16.44;64.66;99796.56;106479;1259;62080;-82
2023/10/14 11:07:00;;;;;;;;;;;;;;;16.46;64.78;99801.66;106288;1259;124706;-82
2023/10/14 11:09:30;;;;;;;;;;;;;;;16.49;64.80;99804.80;106322;1263;65028;-79
2023/10/14 11:12:00;;;;;;;;;;;;;;;16.54;65.15;99808.29;105818;1259;72748;-79
2023/10/14 11:14:27;;;;;;;;;;;;;;;16.67;65.21;99812.69;106325;1259;65467;-82
2023/10/14 11:16:56;;;;;;;;;;;;;;;16.85;65.13;99815.96;106418;1264;61943;-82
2023/10/14 11:19:30;;;;;;;;;;;;;;;17.04;64.74;99818.88;106306;1264;124488;-82
2023/10/14 11:21:59;;;;;;;;;;;;;;;17.18;64.54;99828.92;106200;1259;64692;-82
2023/10/14 11:24:26;;;;;;;;;;;;;;;17.33;64.59;99837.36;106141;1260;124532;-82
2023/10/14 11:26:55;;;;;;;;;;;;;;;17.47;64.49;99848.28;106353;1259;62111;-82
2023/10/14 11:29:25;;;;;;;;;;;;;;;17.57;63.97;99846.88;106414;1264;62077;-82
2023/10/14 11:31:55;;;;;;;;;;;;;;;17.59;63.66;99851.10;106361;1259;124367;-82
2023/10/14 11:34:22;;;;;;;;;;;;;;;17.64;63.45;99857.39;106366;1262;64971;-83
2023/10/14 11:36:48;;;;;;;;;;;;;;;17.63;63.49;99874.96;106293;1260;124236;-83
2023/10/14 11:39:16;;;;;;;;;;;;;;;17.70;63.55;99871.48;106380;1259;62073;-83
2023/10/14 11:41:42;;;;;;;;;;;;;;;17.81;63.22;99869.32;106518;1258;62111;-80
2023/10/14 11:44:09;;;;;;;;;;;;;;;18.01;63.15;99876.27;106393;1260;124461;-81
2023/10/14 11:46:39;;;;;;;;;;;;;;;18.20;62.86;99873.91;106612;1258;65585;-80
2023/10/14 11:49:09;;;;;;;;;;;;;;;18.36;62.64;99881.41;106431;1259;124664;-81
2023/10/14 11:51:39;;;;;;;;;;;;;;;18.52;62.51;99888.34;106234;1259;62038;-81
2023/10/14 11:54:06;;;;;;;;;;;;;;;18.59;61.76;99886.58;106505;1258;125541;-81
2023/10/14 11:56:33;;;;;;;;;;;;;;;18.54;60.79;99890.44;106309;1259;75506;-80
2023/10/14 11:59:00;;;;;;;;;;;;;;;18.43;60.43;99897.08;105745;1258;65002;-82
2023/10/14 12:01:32;;;;;;;;;;;;;;;18.33;60.03;99895.33;106290;1258;124867;-80
2023/10/14 12:03:59;;;;;;;;;;;;;;;18.14;59.91;99896.94;106555;1259;62243;-81
2023/10/14 12:06:27;;;;;;;;;;;;;;;17.98;60.15;99898.32;106321;1258;124692;-81
2023/10/14 12:08:54;;;;;;;;;;;;;;;17.82;59.63;99898.41;106404;1260;74265;-81
2023/10/14 12:11:21;;;;;;;;;;;;;;;17.63;59.26;99901.75;106382;1262;66785;-81
2023/10/14 12:13:51;;;;;;;;;;;;;;;17.41;58.74;99903.02;106383;1262;124980;-81
2023/10/14 12:16:17;;;;;;;;;;;;;;;17.20;58.81;99907.09;105829;1258;62078;-81
2023/10/14 12:18:45;;;;;;;;;;;;;;;17.12;59.65;99907.92;105650;1257;124503;-82
2023/10/14 12:21:12;;;;;;;;;;;;;;;17.12;59.58;99912.88;106476;1260;75209;-81
2023/10/14 12:23:39;;;;;;;;;;;;;;;17.12;59.29;99912.70;106553;1258;65062;-80
2023/10/14 12:26:06;;;;;;;;;;;;;;;17.22;59.36;99915.55;106244;1259;125904;-81
2023/10/14 12:28:33;;;;;;;;;;;;;;;17.30;59.19;99921.28;106307;1260;62030;-81
2023/10/14 12:31:03;;;;;;;;;;;;;;;17.32;58.72;99916.99;106197;1259;124631;-81
2023/10/14 12:33:35;;;;;;;;;;;;;;;17.29;58.48;99917.40;106271;1258;76685;-81
2023/10/14 12:36:10;;;;;;;;;;;;;;;17.22;58.08;99919.11;106269;1260;124685;-80
2023/10/14 12:38:38;;;;;;;;;;;;;;;17.22;57.99;99921.75;106370;1260;71234;-81
2023/10/14 12:41:08;;;;;;;;;;;;;;;17.18;57.56;99923.42;106321;1260;62107;-81
2023/10/14 12:43:39;;;;;;;;;;;;;;;17.10;56.98;99924.43;106303;1258;124684;-81
2023/10/14 12:46:14;;;;;;;;;;;;;;;16.97;57.21;99929.59;106391;1262;75601;-81
2023/10/14 12:48:42;;;;;;;;;;;;;;;16.86;57.04;99935.03;106312;1259;124451;-81
2023/10/14 12:51:11;;;;;;;;;;;;;;;16.78;57.20;99936.54;106500;1259;72361;-81
2023/10/14 12:53:38;;;;;;;;;;;;;;;16.79;57.06;99949.98;106443;1259;60363;-80
2023/10/14 12:56:09;;;;;;;;;;;;;;;16.80;57.07;99958.49;106265;1264;124337;-78
2023/10/14 12:58:37;;;;;;;;;;;;;;;16.84;57.02;99962.36;106844;1264;74261;-81
2023/10/14 13:01:07;;;;;;;;;;;;;;;16.94;56.15;99967.20;106865;1258;125186;-80
2023/10/14 13:03:35;;;;;;;;;;;;;;;16.91;55.70;99971.67;106479;1257;72518;-80